Time;durP1;ratioP1;P1;durP2;ratioP2;P2;SDS_P1;SDS_P2;PMS_P1;PMS_P2;Temp;Humidity;BMP_temperature;BMP_pressure;BME280_temperature;BME280_humidity;BME280_pressure;Samples;Min_cycle;Max_cycle;Signal;HPM_P1;HPM_P2
2024/01/13 00:02:22;;;;;;;12.60;8.45;;;16.00;32.80;;;;;;5150688;27;45469;-69
2024/01/13 00:04:49;;;;;;;12.98;9.07;;;15.90;32.70;;;;;;5150751;27;45357;-69
2024/01/13 00:07:16;;;;;;;12.40;8.75;;;15.90;32.80;;;;;;5150428;27;46411;-69
2024/01/13 00:09:44;;;;;;;14.07;10.82;;;15.90;32.70;;;;;;5150553;27;45305;-69
2024/01/13 00:12:11;;;;;;;14.88;11.38;;;15.90;32.80;;;;;;5150671;27;45260;-70
2024/01/13 00:14:38;;;;;;;13.48;9.07;;;15.90;32.90;;;;;;5149886;27;45339;-70
2024/01/13 00:17:05;;;;;;;14.07;10.18;;;15.90;32.90;;;;;;5150561;27;47881;-69
2024/01/13 00:19:32;;;;;;;14.38;8.52;;;15.90;32.90;;;;;;5150290;27;45304;-69
2024/01/13 00:21:58;;;;;;;14.13;9.95;;;15.90;32.90;;;;;;5150478;27;45283;-69
2024/01/13 00:24:25;;;;;;;16.92;10.88;;;15.90;32.90;;;;;;5150553;27;45369;-69
2024/01/13 00:26:53;;;;;;;14.80;11.00;;;15.90;32.90;;;;;;5150395;27;45396;-69
2024/01/13 00:29:20;;;;;;;13.85;8.63;;;15.80;32.90;;;;;;5150214;27;45228;-69
2024/01/13 00:31:47;;;;;;;13.35;8.75;;;15.80;32.90;;;;;;5150222;27;45395;-69
2024/01/13 00:34:14;;;;;;;13.90;11.10;;;15.80;32.90;;;;;;5150109;27;45362;-72
2024/01/13 00:36:41;;;;;;;13.40;8.50;;;15.80;32.90;;;;;;5149388;27;45770;-69
2024/01/13 00:39:08;;;;;;;12.63;8.82;;;15.80;32.90;;;;;;5150085;27;45307;-69
2024/01/13 00:41:35;;;;;;;14.07;10.15;;;15.80;32.90;;;;;;5149942;27;45483;-69
2024/01/13 00:44:03;;;;;;;14.68;10.43;;;15.90;33.00;;;;;;5150270;27;45477;-69
2024/01/13 00:46:30;;;;;;;13.63;10.55;;;15.80;32.90;;;;;;5149681;27;47574;-69
2024/01/13 00:48:57;;;;;;;15.27;10.70;;;15.80;33.00;;;;;;5149647;27;45271;-69
2024/01/13 00:51:24;;;;;;;15.30;11.30;;;15.80;33.00;;;;;;5149992;27;45381;-69
2024/01/13 00:53:51;;;;;;;14.45;10.52;;;15.80;33.00;;;;;;5150040;27;45312;-70
2024/01/13 00:56:17;;;;;;;12.55;8.07;;;15.80;33.00;;;;;;5149797;27;46738;-69
2024/01/13 00:58:44;;;;;;;13.07;9.35;;;15.80;33.00;;;;;;5149736;27;45200;-69
2024/01/13 01:01:12;;;;;;;12.07;8.07;;;15.80;32.90;;;;;;5147248;27;45309;-69
2024/01/13 01:03:39;;;;;;;12.52;8.25;;;15.80;32.90;;;;;;5149994;27;45413;-69
2024/01/13 01:06:06;;;;;;;13.25;8.65;;;15.80;32.90;;;;;;5149371;27;45556;-69
2024/01/13 01:08:33;;;;;;;12.85;8.63;;;15.80;33.00;;;;;;5149729;27;45187;-69
2024/01/13 01:11:00;;;;;;;12.90;7.90;;;15.70;32.90;;;;;;5149696;27;45194;-69
2024/01/13 01:13:27;;;;;;;14.77;10.57;;;15.70;33.00;;;;;;5149724;27;45457;-69
2024/01/13 01:15:54;;;;;;;13.05;7.75;;;15.70;32.90;;;;;;5149442;27;46377;-69
2024/01/13 01:18:22;;;;;;;14.25;8.77;;;15.70;32.90;;;;;;5148650;27;45328;-69
2024/01/13 01:20:49;;;;;;;11.05;8.07;;;15.70;32.90;;;;;;5149517;27;45404;-69
2024/01/13 01:23:15;;;;;;;12.95;9.13;;;15.70;32.90;;;;;;5149693;27;45422;-69
2024/01/13 01:25:42;;;;;;;14.85;10.60;;;15.70;33.00;;;;;;5149317;27;46303;-69
2024/01/13 01:28:09;;;;;;;15.35;11.35;;;15.70;33.00;;;;;;5149244;27;45275;-69
2024/01/13 01:30:36;;;;;;;15.85;10.90;;;15.70;33.00;;;;;;5149212;27;45377;-69
2024/01/13 01:33:03;;;;;;;14.35;10.75;;;15.70;33.00;;;;;;5149421;27;45419;-69
2024/01/13 01:35:31;;;;;;;14.60;10.77;;;15.70;33.00;;;;;;5149074;27;46683;-69
2024/01/13 01:37:58;;;;;;;17.45;10.77;;;15.70;33.00;;;;;;5149183;27;45303;-69
2024/01/13 01:40:26;;;;;;;12.10;8.48;;;15.70;33.00;;;;;;5149115;27;45375;-69
2024/01/13 01:42:53;;;;;;;16.05;11.02;;;15.70;33.00;;;;;;5149392;27;45524;-69
2024/01/13 01:45:20;;;;;;;17.05;9.05;;;15.70;33.00;;;;;;5148773;27;46391;-69
2024/01/13 01:47:47;;;;;;;13.57;8.18;;;15.60;33.00;;;;;;5149134;27;45327;-69
2024/01/13 01:50:14;;;;;;;16.23;11.35;;;15.60;33.00;;;;;;5149014;27;45303;-69
2024/01/13 01:52:42;;;;;;;15.05;11.20;;;15.60;33.00;;;;;;5149014;27;45412;-69
2024/01/13 01:55:09;;;;;;;15.27;10.75;;;15.60;33.00;;;;;;5148710;27;46422;-69
2024/01/13 01:57:38;;;;;;;15.50;11.15;;;15.60;33.00;;;;;;5148691;27;45422;-69
2024/01/13 02:00:06;;;;;;;13.23;8.88;;;15.60;33.00;;;;;;5148703;27;45327;-69
2024/01/13 02:02:33;;;;;;;14.07;10.80;;;15.60;33.10;;;;;;5148515;27;45451;-69
2024/01/13 02:05:02;;;;;;;16.30;9.77;;;15.60;33.10;;;;;;5148728;27;45318;-69
2024/01/13 02:07:29;;;;;;;14.68;8.77;;;15.60;33.10;;;;;;5148748;27;45474;-69
2024/01/13 02:09:57;;;;;;;15.48;9.10;;;15.60;33.70;;;;;;5148780;27;45359;-70
2024/01/13 02:12:25;;;;;;;16.45;11.45;;;15.60;33.10;;;;;;5149168;27;45305;-69
2024/01/13 02:14:54;;;;;;;15.10;10.63;;;15.60;33.10;;;;;;5148522;27;46590;-69
2024/01/13 02:17:20;;;;;;;14.77;8.82;;;15.60;33.10;;;;;;5148449;27;45375;-70
2024/01/13 02:19:47;;;;;;;13.98;9.10;;;15.60;33.10;;;;;;5148911;27;45396;-70
2024/01/13 02:22:15;;;;;;;14.48;10.95;;;15.60;33.10;;;;;;5148926;27;45361;-70
2024/01/13 02:24:42;;;;;;;14.20;9.05;;;15.60;33.10;;;;;;5148363;27;46657;-69
2024/01/13 02:27:09;;;;;;;12.65;8.35;;;15.60;33.10;;;;;;5148539;27;45342;-69
2024/01/13 02:29:36;;;;;;;14.90;10.70;;;15.50;33.10;;;;;;5148384;27;45279;-68
2024/01/13 02:32:03;;;;;;;15.57;10.85;;;15.50;33.00;;;;;;5148674;27;45372;-68
2024/01/13 02:34:30;;;;;;;14.02;10.88;;;15.50;33.00;;;;;;5148092;27;45469;-68
2024/01/13 02:36:57;;;;;;;15.23;11.32;;;15.50;33.70;;;;;;5147315;27;46323;-69
2024/01/13 02:39:25;;;;;;;16.80;11.32;;;15.50;33.10;;;;;;5150258;27;45249;-68
2024/01/13 02:41:52;;;;;;;17.35;10.95;;;15.50;33.70;;;;;;5151125;27;45305;-69
2024/01/13 02:44:19;;;;;;;12.85;10.50;;;15.50;33.10;;;;;;5151120;27;45405;-68
2024/01/13 02:46:45;;;;;;;13.80;9.70;;;15.50;33.10;;;;;;5150991;27;45345;-68
2024/01/13 02:49:12;;;;;;;16.27;8.80;;;15.50;33.20;;;;;;5151081;27;45341;-68
2024/01/13 02:51:39;;;;;;;12.95;8.90;;;15.50;33.20;;;;;;5152547;27;45496;-69
2024/01/13 02:54:06;;;;;;;12.57;8.60;;;15.50;33.10;;;;;;5151917;27;45760;-69
2024/01/13 02:56:34;;;;;;;12.48;7.85;;;15.50;33.10;;;;;;5151929;27;45349;-69
2024/01/13 02:59:01;;;;;;;13.07;8.23;;;15.50;33.10;;;;;;5152102;27;45308;-69
2024/01/13 03:01:29;;;;;;;11.70;8.45;;;15.50;33.00;;;;;;5152211;27;45315;-69
2024/01/13 03:03:56;;;;;;;13.85;10.20;;;15.50;33.10;;;;;;5151691;27;45536;-69
2024/01/13 03:06:25;;;;;;;13.77;8.63;;;15.50;33.00;;;;;;5151367;27;45316;-69
2024/01/13 03:08:51;;;;;;;14.98;11.52;;;15.50;33.10;;;;;;5151548;27;45287;-68
2024/01/13 03:11:18;;;;;;;12.63;8.23;;;15.50;33.10;;;;;;5151624;27;45305;-69
2024/01/13 03:13:46;;;;;;;13.32;10.07;;;15.50;33.10;;;;;;5151184;27;45335;-68
2024/01/13 03:16:14;;;;;;;14.05;8.65;;;15.50;33.10;;;;;;5151164;27;45297;-68
2024/01/13 03:18:41;;;;;;;13.65;10.25;;;15.50;33.10;;;;;;5151550;27;45307;-68
2024/01/13 03:21:07;;;;;;;12.95;7.90;;;15.50;33.10;;;;;;5151755;27;45306;-68
2024/01/13 03:23:34;;;;;;;12.88;8.88;;;15.50;33.10;;;;;;5148415;27;45279;-68
2024/01/13 03:26:01;;;;;;;12.77;8.75;;;15.40;33.10;;;;;;5150732;27;45348;-69
2024/01/13 03:28:28;;;;;;;13.90;10.73;;;15.40;33.10;;;;;;5150461;27;45423;-69
2024/01/13 03:30:58;;;;;;;14.35;11.13;;;15.40;33.10;;;;;;5151322;27;45320;-69
2024/01/13 03:33:25;;;;;;;13.52;10.63;;;15.40;33.00;;;;;;5150770;27;46675;-69
2024/01/13 03:35:52;;;;;;;14.77;10.80;;;15.40;33.10;;;;;;5150844;27;45483;-69
2024/01/13 03:38:18;;;;;;;13.30;10.10;;;15.40;33.10;;;;;;5150855;27;45356;-69
2024/01/13 03:40:45;;;;;;;14.93;10.75;;;15.40;33.10;;;;;;5151002;27;45433;-68
2024/01/13 03:43:12;;;;;;;14.07;10.10;;;15.30;33.00;;;;;;5150519;27;46690;-68
2024/01/13 03:45:39;;;;;;;14.70;10.50;;;15.40;33.10;;;;;;5150782;27;45170;-69
2024/01/13 03:48:08;;;;;;;14.32;10.10;;;15.40;33.20;;;;;;5150990;27;45412;-68
2024/01/13 03:50:34;;;;;;;14.85;11.05;;;15.40;33.20;;;;;;5149780;27;45268;-69
2024/01/13 03:53:01;;;;;;;14.05;10.20;;;15.40;33.10;;;;;;5150606;27;45290;-69
2024/01/13 03:55:28;;;;;;;13.63;8.90;;;15.40;33.10;;;;;;5150548;27;45212;-69
2024/01/13 03:57:55;;;;;;;14.73;10.68;;;15.40;33.10;;;;;;5150610;27;45286;-69
2024/01/13 04:00:22;;;;;;;14.15;10.18;;;15.40;33.10;;;;;;5150858;27;45547;-69
2024/01/13 04:02:49;;;;;;;15.05;9.65;;;15.40;33.20;;;;;;5150513;27;45350;-68
2024/01/13 04:05:20;;;;;;;14.85;9.63;;;15.30;33.10;;;;;;5150460;27;45312;-68
2024/01/13 04:07:47;;;;;;;13.85;8.82;;;15.30;33.10;;;;;;5150676;27;45445;-68
2024/01/13 04:10:14;;;;;;;13.52;9.77;;;15.30;33.10;;;;;;5150330;27;45484;-68
2024/01/13 04:12:43;;;;;;;14.77;8.10;;;15.40;33.10;;;;;;5149674;27;45757;-68
2024/01/13 04:15:11;;;;;;;14.55;9.38;;;15.40;33.10;;;;;;5150514;27;45401;-68
2024/01/13 04:17:38;;;;;;;15.73;10.63;;;15.40;33.00;;;;;;5150574;27;45386;-68
2024/01/13 04:20:05;;;;;;;14.10;10.50;;;15.40;32.90;;;;;;5150663;27;45423;-69
2024/01/13 04:22:33;;;;;;;14.45;8.48;;;15.50;32.80;;;;;;5150460;27;47470;-69
2024/01/13 04:25:00;;;;;;;13.85;7.90;;;15.60;33.40;;;;;;5150295;27;45262;-68
2024/01/13 04:27:27;;;;;;;15.07;10.02;;;15.70;32.50;;;;;;5150544;27;45447;-69
2024/01/13 04:29:54;;;;;;;13.90;10.20;;;15.90;32.40;;;;;;5150435;27;45438;-68
2024/01/13 04:32:21;;;;;;;13.82;7.97;;;16.00;32.20;;;;;;5150070;27;46302;-68
2024/01/13 04:34:48;;;;;;;12.10;7.57;;;16.10;32.10;;;;;;5150569;27;45215;-69
2024/01/13 04:37:14;;;;;;;13.55;9.05;;;16.20;31.90;;;;;;5150170;27;45267;-68
2024/01/13 04:39:43;;;;;;;11.98;7.88;;;16.30;32.40;;;;;;5150216;27;45413;-68
2024/01/13 04:42:09;;;;;;;13.23;7.90;;;16.40;31.60;;;;;;5149667;27;47309;-68
2024/01/13 04:44:36;;;;;;;12.40;7.45;;;16.50;31.50;;;;;;5150030;27;45139;-69
2024/01/13 04:47:03;;;;;;;12.07;8.13;;;16.60;31.90;;;;;;5149889;27;45270;-68
2024/01/13 04:49:30;;;;;;;15.05;7.97;;;16.70;31.20;;;;;;5150117;27;45428;-68
2024/01/13 04:51:57;;;;;;;10.77;8.00;;;16.80;31.10;;;;;;5149635;27;47285;-67
2024/01/13 04:54:24;;;;;;;12.07;7.85;;;16.90;31.00;;;;;;5148908;27;45339;-68
2024/01/13 04:56:52;;;;;;;12.80;7.78;;;16.90;30.80;;;;;;5149778;27;45413;-68
2024/01/13 04:59:19;;;;;;;12.98;8.10;;;17.00;30.80;;;;;;5150142;27;45428;-68
2024/01/13 05:01:46;;;;;;;10.82;7.72;;;17.00;30.70;;;;;;5149330;27;45258;-68
2024/01/13 05:04:13;;;;;;;13.18;8.35;;;17.10;30.60;;;;;;5149722;27;45303;-69
2024/01/13 05:06:39;;;;;;;11.23;7.72;;;17.20;30.60;;;;;;5149655;27;45365;-69
2024/01/13 05:09:06;;;;;;;11.75;7.60;;;17.20;30.50;;;;;;5149890;27;45354;-68
2024/01/13 05:11:33;;;;;;;10.05;7.13;;;17.30;30.40;;;;;;5149383;27;46449;-68
2024/01/13 05:14:01;;;;;;;12.60;7.65;;;17.30;30.40;;;;;;5149532;27;45372;-68
2024/01/13 05:16:28;;;;;;;13.55;7.63;;;17.40;31.00;;;;;;5149677;27;45377;-69
2024/01/13 05:18:55;;;;;;;11.18;7.43;;;17.40;30.30;;;;;;5149668;27;45365;-68
2024/01/13 05:21:22;;;;;;;10.65;7.13;;;17.40;30.20;;;;;;5149216;27;45665;-69
2024/01/13 05:23:49;;;;;;;11.45;7.50;;;17.50;30.20;;;;;;5149140;27;45313;-68
2024/01/13 05:26:16;;;;;;;13.80;7.97;;;17.50;30.20;;;;;;5149312;27;45278;-68
2024/01/13 05:28:43;;;;;;;12.48;7.45;;;17.50;30.10;;;;;;5149746;27;45355;-68
2024/01/13 05:31:11;;;;;;;11.82;7.68;;;17.60;30.10;;;;;;5148843;27;46394;-68
2024/01/13 05:33:38;;;;;;;11.13;7.15;;;17.60;30.00;;;;;;5149256;27;45296;-68
2024/01/13 05:36:05;;;;;;;10.85;7.18;;;17.60;30.00;;;;;;5148884;27;45258;-68
2024/01/13 05:38:32;;;;;;;14.55;8.05;;;17.70;30.00;;;;;;5147006;27;45327;-69
2024/01/13 05:40:59;;;;;;;11.15;7.05;;;17.70;30.00;;;;;;5148705;27;46388;-69
2024/01/13 05:43:25;;;;;;;10.23;6.78;;;17.70;30.00;;;;;;5149073;27;45272;-69
2024/01/13 05:45:52;;;;;;;13.43;7.38;;;17.70;29.90;;;;;;5149154;27;45259;-69
2024/01/13 05:48:20;;;;;;;10.98;7.28;;;17.80;30.00;;;;;;5149362;27;45165;-69
2024/01/13 05:50:47;;;;;;;12.93;7.50;;;17.80;29.90;;;;;;5148621;27;46650;-69
2024/01/13 05:53:14;;;;;;;10.88;6.97;;;17.80;29.90;;;;;;5148799;27;45595;-70
2024/01/13 05:55:42;;;;;;;14.93;7.72;;;17.90;29.90;;;;;;5148905;27;45339;-69
2024/01/13 05:58:09;;;;;;;15.30;7.40;;;17.90;29.90;;;;;;5149057;27;45325;-69
2024/01/13 06:00:36;;;;;;;11.50;7.05;;;17.90;29.80;;;;;;5148553;27;46394;-69
2024/01/13 06:03:03;;;;;;;13.32;6.53;;;17.90;29.80;;;;;;5148920;27;45353;-69
2024/01/13 06:05:31;;;;;;;12.35;7.80;;;18.00;29.80;;;;;;5148873;27;45318;-69
2024/01/13 06:07:58;;;;;;;10.90;7.05;;;18.00;29.70;;;;;;5148844;27;45622;-69
2024/01/13 06:10:26;;;;;;;10.02;6.63;;;18.00;29.70;;;;;;5148521;27;45466;-69
2024/01/13 06:12:54;;;;;;;12.88;7.03;;;18.00;29.70;;;;;;5147870;27;45341;-69
2024/01/13 06:15:21;;;;;;;12.07;6.93;;;18.10;29.70;;;;;;5148846;27;45395;-69
2024/01/13 06:17:48;;;;;;;10.65;7.15;;;18.10;29.60;;;;;;5148558;27;45432;-69
2024/01/13 06:20:15;;;;;;;10.73;7.28;;;18.10;29.60;;;;;;5147645;27;47550;-69
2024/01/13 06:22:43;;;;;;;11.80;7.43;;;18.10;29.60;;;;;;5148338;27;45401;-69
2024/01/13 06:25:10;;;;;;;11.95;7.25;;;18.20;29.60;;;;;;5148541;27;45387;-70
2024/01/13 06:27:38;;;;;;;11.35;7.15;;;18.20;29.50;;;;;;5148590;27;45398;-70
2024/01/13 06:30:06;;;;;;;11.90;7.00;;;18.20;29.50;;;;;;5148337;27;46644;-70
2024/01/13 06:32:34;;;;;;;10.30;6.68;;;18.20;29.50;;;;;;5148263;27;45310;-70
2024/01/13 06:35:00;;;;;;;11.15;7.28;;;18.20;29.50;;;;;;5148112;27;45320;-69
2024/01/13 06:37:27;;;;;;;13.63;7.10;;;18.20;29.40;;;;;;5148561;27;45284;-69
2024/01/13 06:39:55;;;;;;;9.88;6.80;;;18.20;29.50;;;;;;5148007;27;45207;-70
2024/01/13 06:42:22;;;;;;;11.55;7.30;;;18.20;29.40;;;;;;5147787;27;45249;-70
2024/01/13 06:44:49;;;;;;;10.20;6.68;;;18.30;29.40;;;;;;5148622;27;45490;-70
2024/01/13 06:47:16;;;;;;;13.07;7.13;;;18.30;29.40;;;;;;5148386;27;45341;-71
2024/01/13 06:49:43;;;;;;;11.90;7.35;;;18.30;29.40;;;;;;5147771;27;45392;-69
2024/01/13 06:52:12;;;;;;;11.80;6.85;;;18.30;29.30;;;;;;5148080;27;45251;-70
2024/01/13 06:54:39;;;;;;;13.57;6.55;;;18.40;29.30;;;;;;5148565;27;45383;-70
2024/01/13 06:57:07;;;;;;;10.57;6.63;;;18.30;29.30;;;;;;5148308;27;45338;-70
2024/01/13 06:59:34;;;;;;;11.88;6.88;;;18.40;29.30;;;;;;5147624;27;45152;-69
2024/01/13 07:02:01;;;;;;;11.00;6.15;;;18.40;29.30;;;;;;5147571;27;45250;-71
2024/01/13 07:04:28;;;;;;;12.55;6.82;;;18.40;29.30;;;;;;5148007;27;45545;-70
2024/01/13 07:06:55;;;;;;;10.57;6.22;;;18.40;29.20;;;;;;5148036;27;45448;-70
2024/01/13 07:09:22;;;;;;;9.85;6.10;;;18.50;29.30;;;;;;5147652;27;45538;-71
2024/01/13 07:11:49;;;;;;;10.55;6.53;;;18.50;29.20;;;;;;5147670;27;45279;-71
2024/01/13 07:14:17;;;;;;;11.30;7.30;;;18.50;29.20;;;;;;5148062;27;45320;-70
2024/01/13 07:16:44;;;;;;;10.32;6.63;;;18.50;29.20;;;;;;5147961;27;45489;-70
2024/01/13 07:19:11;;;;;;;11.88;6.82;;;18.50;29.70;;;;;;5147695;27;46452;-70
2024/01/13 07:21:38;;;;;;;12.02;7.22;;;18.50;29.20;;;;;;5147788;27;45304;-70
2024/01/13 07:24:06;;;;;;;10.50;6.28;;;18.60;29.20;;;;;;5148492;27;45263;-70
2024/01/13 07:26:33;;;;;;;10.52;6.82;;;18.60;29.20;;;;;;5151528;27;45369;-70
2024/01/13 07:28:59;;;;;;;11.80;6.43;;;18.60;29.50;;;;;;5151116;27;46750;-70
2024/01/13 07:31:28;;;;;;;9.77;6.57;;;18.60;29.20;;;;;;5150891;27;45292;-69
2024/01/13 07:33:57;;;;;;;11.18;6.88;;;18.50;29.10;;;;;;5151045;27;45301;-70
2024/01/13 07:36:24;;;;;;;11.65;6.80;;;18.60;29.10;;;;;;5151398;27;45430;-70
2024/01/13 07:38:51;;;;;;;11.93;6.82;;;18.60;29.10;;;;;;5150954;27;46278;-70
2024/01/13 07:41:18;;;;;;;12.45;6.97;;;18.60;29.10;;;;;;5150809;27;45171;-70
2024/01/13 07:43:45;;;;;;;11.50;7.05;;;18.60;29.10;;;;;;5151029;27;45199;-70
2024/01/13 07:46:13;;;;;;;11.77;7.25;;;18.60;29.00;;;;;;5150468;27;45327;-70
2024/01/13 07:48:41;;;;;;;11.25;6.93;;;18.60;29.10;;;;;;5150571;27;45298;-70
2024/01/13 07:51:08;;;;;;;12.25;6.28;;;18.70;29.00;;;;;;5150553;27;45317;-70
2024/01/13 07:53:35;;;;;;;12.32;7.28;;;18.70;29.00;;;;;;5151015;27;45341;-70
2024/01/13 07:56:02;;;;;;;10.85;7.03;;;18.70;29.00;;;;;;5150850;27;45332;-70
2024/01/13 07:58:29;;;;;;;12.25;7.28;;;18.70;29.00;;;;;;5150477;27;45364;-70
2024/01/13 08:00:56;;;;;;;10.77;7.18;;;18.70;29.00;;;;;;5150414;27;45300;-70
2024/01/13 08:03:23;;;;;;;13.75;7.32;;;18.70;29.00;;;;;;5150788;27;45333;-70
2024/01/13 08:05:51;;;;;;;12.05;7.22;;;18.70;29.00;;;;;;5150971;27;45171;-70
2024/01/13 08:08:18;;;;;;;12.48;6.93;;;18.70;29.00;;;;;;5150679;27;46385;-69
2024/01/13 08:10:45;;;;;;;12.35;6.80;;;18.70;29.00;;;;;;5147799;27;45376;-70
2024/01/13 08:13:12;;;;;;;14.07;7.68;;;18.70;28.90;;;;;;5150261;27;45365;-70
2024/01/13 08:15:39;;;;;;;12.25;6.95;;;18.70;29.00;;;;;;5150566;27;45386;-70
2024/01/13 08:18:06;;;;;;;13.30;7.35;;;18.70;28.90;;;;;;5150260;27;46521;-70
2024/01/13 08:20:33;;;;;;;10.38;6.68;;;18.70;28.90;;;;;;5150505;27;45395;-70
2024/01/13 08:23:01;;;;;;;11.55;6.60;;;18.80;29.00;;;;;;5150165;27;45514;-70
2024/01/13 08:25:29;;;;;;;14.07;7.18;;;18.80;28.90;;;;;;5150569;27;45425;-69
2024/01/13 08:27:56;;;;;;;10.18;6.43;;;18.80;29.00;;;;;;5150020;27;46292;-70
2024/01/13 08:30:23;;;;;;;12.30;7.35;;;18.80;28.90;;;;;;5149351;27;45408;-71
2024/01/13 08:32:50;;;;;;;12.32;6.93;;;18.80;28.90;;;;;;5150262;27;45328;-70
2024/01/13 08:35:17;;;;;;;10.35;6.65;;;18.80;28.90;;;;;;5150215;27;45368;-70
2024/01/13 08:37:43;;;;;;;10.20;6.50;;;18.90;28.90;;;;;;5149518;27;46360;-70
2024/01/13 08:40:12;;;;;;;12.02;7.25;;;18.90;28.90;;;;;;5150067;27;45240;-70
2024/01/13 08:42:39;;;;;;;12.82;7.25;;;18.90;28.90;;;;;;5149520;27;45248;-70
2024/01/13 08:45:06;;;;;;;12.40;6.97;;;18.90;28.90;;;;;;5150205;27;45495;-70
2024/01/13 08:47:33;;;;;;;11.60;7.35;;;18.90;28.90;;;;;;5149851;27;46373;-70
2024/01/13 08:50:00;;;;;;;11.05;6.63;;;18.90;28.90;;;;;;5149790;27;45274;-69
2024/01/13 08:52:28;;;;;;;10.90;6.97;;;18.90;28.90;;;;;;5149873;27;45268;-70
2024/01/13 08:54:55;;;;;;;10.02;6.75;;;18.90;28.90;;;;;;5149944;27;45402;-70
2024/01/13 08:57:23;;;;;;;12.48;6.72;;;18.90;28.90;;;;;;5149468;27;46418;-70
2024/01/13 08:59:50;;;;;;;11.32;6.75;;;18.90;29.00;;;;;;5149386;27;45323;-70
2024/01/13 09:02:17;;;;;;;10.02;6.47;;;19.00;28.90;;;;;;5149820;27;45189;-70
2024/01/13 09:04:44;;;;;;;10.93;7.68;;;19.00;28.80;;;;;;5149895;27;45395;-70
2024/01/13 09:07:11;;;;;;;11.95;6.55;;;19.00;29.10;;;;;;5149186;27;46271;-69
2024/01/13 09:09:38;;;;;;;11.43;6.90;;;19.00;29.10;;;;;;5149583;27;45608;-70
2024/01/13 09:12:05;;;;;;;13.65;7.57;;;19.00;29.10;;;;;;5149101;27;45336;-70
2024/01/13 09:14:33;;;;;;;11.35;6.68;;;19.00;28.80;;;;;;5149385;27;45368;-70
2024/01/13 09:17:00;;;;;;;12.48;7.15;;;19.00;28.90;;;;;;5149302;27;47677;-70
2024/01/13 09:19:27;;;;;;;13.35;7.20;;;19.00;28.90;;;;;;5148896;27;45368;-70
2024/01/13 09:21:54;;;;;;;11.40;7.47;;;19.00;28.90;;;;;;5149389;27;45265;-70
2024/01/13 09:24:20;;;;;;;11.48;6.35;;;19.00;28.90;;;;;;5149833;27;45403;-69
2024/01/13 09:26:48;;;;;;;10.82;5.82;;;19.00;28.90;;;;;;5149313;27;46275;-69
2024/01/13 09:29:16;;;;;;;10.10;6.45;;;19.10;28.90;;;;;;5149247;27;45440;-69
2024/01/13 09:31:44;;;;;;;10.45;6.72;;;19.10;28.90;;;;;;5149695;27;45363;-70
2024/01/13 09:34:11;;;;;;;12.98;7.20;;;19.10;29.40;;;;;;5149670;27;45584;-69
2024/01/13 09:36:38;;;;;;;13.48;7.32;;;19.00;28.90;;;;;;5149023;27;45522;-69
2024/01/13 09:39:05;;;;;;;16.23;7.13;;;19.10;28.90;;;;;;5149108;27;45403;-69
2024/01/13 09:41:32;;;;;;;8.02;5.95;;;19.10;28.90;;;;;;5149079;27;45311;-69
2024/01/13 09:44:01;;;;;;;10.13;5.95;;;19.10;28.90;;;;;;5149483;27;45474;-69
2024/01/13 09:46:28;;;;;;;21.05;11.50;;;19.10;28.90;;;;;;5145022;27;46366;-70
2024/01/13 09:48:57;;;;;;;20.02;10.18;;;19.00;27.20;;;;;;5146995;27;45542;-67
2024/01/13 09:51:23;;;;;;;15.45;9.10;;;18.40;27.10;;;;;;5148502;27;45335;-68
2024/01/13 09:53:58;;;;;;;17.10;9.23;;;18.40;28.00;;;;;;5148414;27;45272;-70
2024/01/13 09:56:29;;;;;;;19.63;8.40;;;18.40;28.10;;;;;;5146349;27;45630;-69
2024/01/13 09:58:56;;;;;;;18.05;8.30;;;18.50;28.40;;;;;;5146108;27;45425;-68
2024/01/13 10:01:23;;;;;;;12.93;6.93;;;18.50;28.50;;;;;;5146188;27;45364;-71
2024/01/13 10:03:50;;;;;;;14.52;8.52;;;18.60;28.70;;;;;;5141904;27;45474;-75
2024/01/13 10:06:18;;;;;;;15.13;7.65;;;18.70;28.60;;;;;;5143739;27;46409;-72
2024/01/13 10:08:46;;;;;;;10.55;6.90;;;18.80;28.70;;;;;;5148904;27;45393;-71
2024/01/13 10:11:12;;;;;;;13.00;7.40;;;18.80;28.70;;;;;;5148895;27;45324;-72
2024/01/13 10:13:39;;;;;;;11.25;6.68;;;18.80;28.70;;;;;;5146086;27;45352;-71
2024/01/13 10:16:06;;;;;;;15.00;6.88;;;18.90;28.70;;;;;;5148641;27;46798;-70
2024/01/13 10:18:33;;;;;;;12.80;6.95;;;18.90;28.70;;;;;;5148827;27;45413;-71
2024/01/13 10:21:00;;;;;;;11.98;7.07;;;19.00;28.70;;;;;;5148624;27;45558;-72
2024/01/13 10:23:28;;;;;;;11.05;7.28;;;19.00;28.70;;;;;;5149042;27;45413;-72
2024/01/13 10:25:55;;;;;;;12.35;7.03;;;19.00;28.70;;;;;;5148528;27;46665;-72
2024/01/13 10:28:23;;;;;;;11.25;6.00;;;19.10;28.70;;;;;;5148680;27;45199;-73
2024/01/13 10:30:51;;;;;;;9.80;6.22;;;19.10;28.70;;;;;;5149106;27;45384;-72
2024/01/13 10:33:17;;;;;;;10.55;6.07;;;19.10;28.70;;;;;;5148924;27;45349;-73
2024/01/13 10:35:44;;;;;;;13.25;7.00;;;19.10;28.70;;;;;;5148585;27;47074;-72
2024/01/13 10:38:12;;;;;;;11.18;6.25;;;19.20;28.70;;;;;;5147126;27;45387;-71
2024/01/13 10:40:40;;;;;;;10.20;6.40;;;19.20;28.70;;;;;;5147890;27;45321;-74
2024/01/13 10:43:07;;;;;;;12.35;6.75;;;19.20;28.70;;;;;;5147611;27;45465;-72
2024/01/13 10:45:34;;;;;;;13.45;6.88;;;19.20;28.70;;;;;;5147510;27;46968;-74
2024/01/13 10:48:04;;;;;;;11.98;6.97;;;19.30;28.70;;;;;;5146123;27;45313;-70
2024/01/13 10:50:31;;;;;;;11.27;6.57;;;19.20;28.70;;;;;;5137343;27;45514;-74
2024/01/13 10:53:03;;;;;;;11.40;6.38;;;19.30;28.80;;;;;;5137631;27;45407;-67
2024/01/13 10:55:30;;;;;;;11.98;6.50;;;19.30;28.80;;;;;;5139205;27;46705;-66
2024/01/13 10:57:59;;;;;;;12.82;6.63;;;19.40;29.30;;;;;;5146427;27;45483;-66
2024/01/13 11:00:25;;;;;;;14.15;6.25;;;19.40;28.70;;;;;;5149909;27;45297;-67
2024/01/13 11:02:52;;;;;;;15.63;7.65;;;19.40;28.70;;;;;;5151463;27;45393;-66
2024/01/13 11:05:22;;;;;;;11.73;7.00;;;19.40;28.90;;;;;;5157328;27;46742;-66
2024/01/13 11:07:48;;;;;;;10.93;6.47;;;19.40;28.90;;;;;;5143261;27;45311;-71
2024/01/13 11:10:17;;;;;;;12.38;7.05;;;19.40;28.90;;;;;;5151978;27;45296;-70
2024/01/13 11:12:46;;;;;;;10.73;6.28;;;19.40;28.80;;;;;;5143330;27;45407;-70
2024/01/13 11:15:16;;;;;;;12.68;6.88;;;19.50;29.00;;;;;;5150070;27;45497;-67
2024/01/13 11:17:44;;;;;;;13.10;6.80;;;19.40;28.90;;;;;;5147349;27;45236;-67
2024/01/13 11:20:11;;;;;;;13.77;6.68;;;19.40;28.90;;;;;;5150645;27;45369;-66
2024/01/13 11:22:39;;;;;;;14.25;6.13;;;19.40;29.10;;;;;;5149295;27;45539;-67
2024/01/13 11:25:08;;;;;;;15.25;6.82;;;19.40;29.10;;;;;;5148426;27;45754;-67
2024/01/13 11:27:35;;;;;;;14.45;7.55;;;19.30;29.20;;;;;;5150098;27;45267;-68
2024/01/13 11:30:02;;;;;;;10.82;6.63;;;19.20;29.30;;;;;;5150032;27;45431;-65
2024/01/13 11:32:33;;;;;;;12.80;6.78;;;19.20;29.40;;;;;;5150151;27;45393;-65
2024/01/13 11:35:06;;;;;;;9.13;6.25;;;19.10;29.40;;;;;;5149835;27;45527;-66
2024/01/13 11:37:34;;;;;;;13.05;6.57;;;19.10;29.40;;;;;;5149895;27;45253;-67
2024/01/13 11:40:04;;;;;;;10.63;5.70;;;19.00;29.60;;;;;;5150412;27;45303;-66
2024/01/13 11:42:31;;;;;;;11.60;6.38;;;19.00;29.60;;;;;;5150563;27;45323;-65
2024/01/13 11:44:59;;;;;;;11.57;6.13;;;18.90;29.70;;;;;;5149452;27;46302;-66
2024/01/13 11:47:30;;;;;;;11.98;6.00;;;18.80;29.80;;;;;;5149621;27;45297;-66
2024/01/13 11:49:57;;;;;;;13.95;6.65;;;18.80;29.90;;;;;;5150178;27;45241;-66
2024/01/13 11:52:30;;;;;;;11.43;6.45;;;18.70;29.80;;;;;;5150008;27;44710;-67
2024/01/13 11:54:57;;;;;;;11.98;5.90;;;18.70;29.90;;;;;;5149698;27;46654;-65
2024/01/13 11:57:24;;;;;;;8.80;6.03;;;18.60;30.00;;;;;;5149999;27;45381;-65
2024/01/13 11:59:52;;;;;;;11.38;5.95;;;18.60;30.00;;;;;;5149405;27;45411;-66
2024/01/13 12:02:20;;;;;;;10.55;6.45;;;18.60;30.00;;;;;;5129217;27;45292;-64
2024/01/13 12:04:49;;;;;;;12.80;6.28;;;18.60;30.00;;;;;;5128770;27;46403;-64
2024/01/13 12:07:16;;;;;;;7.93;5.72;;;18.70;30.00;;;;;;5149174;27;45396;-64
2024/01/13 12:09:43;;;;;;;11.18;6.30;;;18.70;30.00;;;;;;5150807;27;45326;-70
2024/01/13 12:12:10;;;;;;;17.10;6.80;;;18.80;32.00;;;;;;5148858;27;45398;-67
2024/01/13 12:14:37;;;;;;;11.90;6.32;;;18.90;33.30;;;;;;5150502;27;46405;-68
2024/01/13 12:17:05;;;;;;;13.77;6.07;;;19.00;33.80;;;;;;5149743;27;45301;-67
2024/01/13 12:19:33;;;;;;;8.63;5.30;;;19.10;32.20;;;;;;5149624;27;45341;-66
2024/01/13 12:22:01;;;;;;;12.23;5.93;;;19.30;33.00;;;;;;5149778;27;45385;-73
2024/01/13 12:24:28;;;;;;;11.88;6.13;;;19.50;32.80;;;;;;5149400;27;45186;-69
2024/01/13 12:26:55;;;;;;;10.02;5.63;;;19.50;32.80;;;;;;5150771;27;45269;-70
2024/01/13 12:29:24;;;;;;;11.25;6.30;;;19.60;32.60;;;;;;5150575;27;45387;-75
2024/01/13 12:31:51;;;;;;;9.80;5.32;;;19.60;33.30;;;;;;5150125;27;45476;-67
2024/01/13 12:34:20;;;;;;;9.18;5.20;;;19.60;33.40;;;;;;5149747;27;45220;-71
2024/01/13 12:36:47;;;;;;;10.93;5.57;;;19.60;32.00;;;;;;5149861;27;45374;-73